sensor_id;sensor_type;location;lat;lon;timestamp;temperature;humidity
6110;DHT22;3085;49.444;11.054;2023-12-20T00:02:03;6.20;99.90
6110;DHT22;3085;49.444;11.054;2023-12-20T00:04:30;6.20;99.90
6110;DHT22;3085;49.444;11.054;2023-12-20T00:06:57;6.20;99.90
6110;DHT22;3085;49.444;11.054;2023-12-20T00:09:24;6.20;99.90
6110;DHT22;3085;49.444;11.054;2023-12-20T00:11:52;6.20;99.90
6110;DHT22;3085;49.444;11.054;2023-12-20T00:14:19;6.20;99.90
6110;DHT22;3085;49.444;11.054;2023-12-20T00:16:45;6.20;99.90
6110;DHT22;3085;49.444;11.054;2023-12-20T00:19:12;6.20;99.90
6110;DHT22;3085;49.444;11.054;2023-12-20T00:21:39;6.20;99.90
6110;DHT22;3085;49.444;11.054;2023-12-20T00:24:05;6.10;99.90
6110;DHT22;3085;49.444;11.054;2023-12-20T00:26:32;6.20;99.90
6110;DHT22;3085;49.444;11.054;2023-12-20T00:29:00;6.20;99.90
6110;DHT22;3085;49.444;11.054;2023-12-20T00:31:27;6.20;99.90
6110;DHT22;3085;49.444;11.054;2023-12-20T00:33:54;6.20;99.90
6110;DHT22;3085;49.444;11.054;2023-12-20T00:36:21;6.20;99.90
6110;DHT22;3085;49.444;11.054;2023-12-20T00:38:48;6.20;99.90
6110;DHT22;3085;49.444;11.054;2023-12-20T00:41:15;6.20;99.90
6110;DHT22;3085;49.444;11.054;2023-12-20T00:43:42;6.20;99.90
6110;DHT22;3085;49.444;11.054;2023-12-20T00:46:10;6.20;99.90
6110;DHT22;3085;49.444;11.054;2023-12-20T00:48:36;6.10;99.90
6110;DHT22;3085;49.444;11.054;2023-12-20T00:51:03;6.20;99.90
6110;DHT22;3085;49.444;11.054;2023-12-20T00:53:30;6.20;99.90
6110;DHT22;3085;49.444;11.054;2023-12-20T00:55:57;6.20;99.90
6110;DHT22;3085;49.444;11.054;2023-12-20T00:58:24;6.40;99.90
6110;DHT22;3085;49.444;11.054;2023-12-20T01:00:52;6.20;99.90
6110;DHT22;3085;49.444;11.054;2023-12-20T01:03:20;6.20;99.90
6110;DHT22;3085;49.444;11.054;2023-12-20T01:05:47;6.20;99.90
6110;DHT22;3085;49.444;11.054;2023-12-20T01:08:13;6.20;99.90
6110;DHT22;3085;49.444;11.054;2023-12-20T01:10:40;6.20;99.90
6110;DHT22;3085;49.444;11.054;2023-12-20T01:13:07;6.10;99.90
6110;DHT22;3085;49.444;11.054;2023-12-20T01:15:34;6.20;99.90
6110;DHT22;3085;49.444;11.054;2023-12-20T01:18:00;6.20;99.90
6110;DHT22;3085;49.444;11.054;2023-12-20T01:20:29;6.20;99.90
6110;DHT22;3085;49.444;11.054;2023-12-20T01:22:55;6.20;99.90
6110;DHT22;3085;49.444;11.054;2023-12-20T01:25:22;6.20;99.90
6110;DHT22;3085;49.444;11.054;2023-12-20T01:27:49;6.20;99.90
6110;DHT22;3085;49.444;11.054;2023-12-20T01:30:16;6.20;99.90
6110;DHT22;3085;49.444;11.054;2023-12-20T01:32:43;6.20;99.90
6110;DHT22;3085;49.444;11.054;2023-12-20T01:35:10;6.10;99.90
6110;DHT22;3085;49.444;11.054;2023-12-20T01:37:39;6.10;99.90
6110;DHT22;3085;49.444;11.054;2023-12-20T01:40:06;6.20;99.90
6110;DHT22;3085;49.444;11.054;2023-12-20T01:42:33;6.10;99.90
6110;DHT22;3085;49.444;11.054;2023-12-20T01:45:00;6.10;99.90
6110;DHT22;3085;49.444;11.054;2023-12-20T01:47:27;6.10;99.90
6110;DHT22;3085;49.444;11.054;2023-12-20T01:49:54;6.10;99.90
6110;DHT22;3085;49.444;11.054;2023-12-20T01:52:23;6.10;99.90
6110;DHT22;3085;49.444;11.054;2023-12-20T01:54:51;6.10;99.90
6110;DHT22;3085;49.444;11.054;2023-12-20T01:57:20;6.10;99.90
6110;DHT22;3085;49.444;11.054;2023-12-20T01:59:47;6.10;99.90
6110;DHT22;3085;49.444;11.054;2023-12-20T02:02:14;6.10;99.90
6110;DHT22;3085;49.444;11.054;2023-12-20T02:04:41;6.10;99.90
6110;DHT22;3085;49.444;11.054;2023-12-20T02:07:08;6.10;99.90
6110;DHT22;3085;49.444;11.054;2023-12-20T02:09:36;6.00;99.90
6110;DHT22;3085;49.444;11.054;2023-12-20T02:12:05;6.00;99.90
6110;DHT22;3085;49.444;11.054;2023-12-20T02:14:32;5.90;99.90
6110;DHT22;3085;49.444;11.054;2023-12-20T02:16:59;5.90;99.90
6110;DHT22;3085;49.444;11.054;2023-12-20T02:19:25;5.90;99.90
6110;DHT22;3085;49.444;11.054;2023-12-20T02:22:06;5.80;99.90
6110;DHT22;3085;49.444;11.054;2023-12-20T02:24:33;5.80;99.90
6110;DHT22;3085;49.444;11.054;2023-12-20T02:27:00;5.90;99.90
6110;DHT22;3085;49.444;11.054;2023-12-20T02:29:27;5.80;99.90
6110;DHT22;3085;49.444;11.054;2023-12-20T02:31:53;5.70;99.90
6110;DHT22;3085;49.444;11.054;2023-12-20T02:34:20;5.60;99.90
6110;DHT22;3085;49.444;11.054;2023-12-20T02:36:46;5.70;99.90
6110;DHT22;3085;49.444;11.054;2023-12-20T02:39:14;5.50;99.90
6110;DHT22;3085;49.444;11.054;2023-12-20T02:41:41;5.60;99.90
6110;DHT22;3085;49.444;11.054;2023-12-20T02:44:08;5.50;99.90
6110;DHT22;3085;49.444;11.054;2023-12-20T02:46:34;5.50;99.90
6110;DHT22;3085;49.444;11.054;2023-12-20T02:49:07;5.50;99.90
6110;DHT22;3085;49.444;11.054;2023-12-20T02:51:34;5.60;99.90
6110;DHT22;3085;49.444;11.054;2023-12-20T02:54:03;5.50;99.90
6110;DHT22;3085;49.444;11.054;2023-12-20T02:56:31;5.50;99.90
6110;DHT22;3085;49.444;11.054;2023-12-20T02:58:58;5.50;99.90
6110;DHT22;3085;49.444;11.054;2023-12-20T03:01:25;5.40;99.90
6110;DHT22;3085;49.444;11.054;2023-12-20T03:03:51;5.40;99.90
6110;DHT22;3085;49.444;11.054;2023-12-20T03:06:18;5.30;99.90
6110;DHT22;3085;49.444;11.054;2023-12-20T03:08:47;5.30;99.90
6110;DHT22;3085;49.444;11.054;2023-12-20T03:11:14;5.20;99.90
6110;DHT22;3085;49.444;11.054;2023-12-20T03:13:42;5.40;99.90
6110;DHT22;3085;49.444;11.054;2023-12-20T03:16:09;5.20;99.90
6110;DHT22;3085;49.444;11.054;2023-12-20T03:18:35;5.30;99.90
6110;DHT22;3085;49.444;11.054;2023-12-20T03:21:02;5.30;99.90
6110;DHT22;3085;49.444;11.054;2023-12-20T03:23:29;5.30;99.90
6110;DHT22;3085;49.444;11.054;2023-12-20T03:25:56;5.20;99.90
6110;DHT22;3085;49.444;11.054;2023-12-20T03:28:22;5.30;99.90
6110;DHT22;3085;49.444;11.054;2023-12-20T03:30:50;5.30;99.90
6110;DHT22;3085;49.444;11.054;2023-12-20T03:33:17;5.30;99.90
6110;DHT22;3085;49.444;11.054;2023-12-20T03:35:44;5.20;99.90
6110;DHT22;3085;49.444;11.054;2023-12-20T03:38:10;5.10;99.90
6110;DHT22;3085;49.444;11.054;2023-12-20T03:40:37;5.20;99.90
6110;DHT22;3085;49.444;11.054;2023-12-20T03:43:04;5.20;99.90
6110;DHT22;3085;49.444;11.054;2023-12-20T03:45:30;5.20;99.90
6110;DHT22;3085;49.444;11.054;2023-12-20T03:47:58;5.20;99.90
6110;DHT22;3085;49.444;11.054;2023-12-20T03:50:25;5.10;99.90
6110;DHT22;3085;49.444;11.054;2023-12-20T03:52:52;5.10;99.90
6110;DHT22;3085;49.444;11.054;2023-12-20T03:55:19;5.00;99.90
6110;DHT22;3085;49.444;11.054;2023-12-20T03:57:45;5.10;99.90
6110;DHT22;3085;49.444;11.054;2023-12-20T04:00:12;5.00;99.90
6110;DHT22;3085;49.444;11.054;2023-12-20T04:02:39;5.00;99.90
6110;DHT22;3085;49.444;11.054;2023-12-20T04:05:09;5.10;99.90
6110;DHT22;3085;49.444;11.054;2023-12-20T04:07:36;5.10;99.90
6110;DHT22;3085;49.444;11.054;2023-12-20T04:10:03;5.10;99.90
6110;DHT22;3085;49.444;11.054;2023-12-20T04:12:30;5.10;99.90
6110;DHT22;3085;49.444;11.054;2023-12-20T04:14:57;5.10;99.90
6110;DHT22;3085;49.444;11.054;2023-12-20T04:17:23;5.10;99.90
6110;DHT22;3085;49.444;11.054;2023-12-20T04:19:50;5.10;99.90
6110;DHT22;3085;49.444;11.054;2023-12-20T04:22:18;5.10;99.90
6110;DHT22;3085;49.444;11.054;2023-12-20T04:24:45;5.00;99.90
6110;DHT22;3085;49.444;11.054;2023-12-20T04:27:12;5.10;99.90
6110;DHT22;3085;49.444;11.054;2023-12-20T04:29:38;5.10;99.90
6110;DHT22;3085;49.444;11.054;2023-12-20T04:32:06;5.10;99.90
6110;DHT22;3085;49.444;11.054;2023-12-20T04:34:32;5.10;99.90
6110;DHT22;3085;49.444;11.054;2023-12-20T04:36:59;5.20;99.90
6110;DHT22;3085;49.444;11.054;2023-12-20T04:39:29;5.20;99.90
6110;DHT22;3085;49.444;11.054;2023-12-20T04:41:55;5.10;99.90
6110;DHT22;3085;49.444;11.054;2023-12-20T04:44:22;5.10;99.90
6110;DHT22;3085;49.444;11.054;2023-12-20T04:46:49;5.20;99.90
6110;DHT22;3085;49.444;11.054;2023-12-20T04:49:15;5.10;99.90
6110;DHT22;3085;49.444;11.054;2023-12-20T04:51:42;5.10;99.90
6110;DHT22;3085;49.444;11.054;2023-12-20T04:54:09;5.00;99.90
6110;DHT22;3085;49.444;11.054;2023-12-20T04:56:37;5.10;99.90
6110;DHT22;3085;49.444;11.054;2023-12-20T04:59:04;5.00;99.90
6110;DHT22;3085;49.444;11.054;2023-12-20T05:01:31;5.00;99.90
6110;DHT22;3085;49.444;11.054;2023-12-20T05:03:57;4.90;99.90
6110;DHT22;3085;49.444;11.054;2023-12-20T05:06:24;5.00;99.90
6110;DHT22;3085;49.444;11.054;2023-12-20T05:08:51;4.90;99.90
6110;DHT22;3085;49.444;11.054;2023-12-20T05:11:17;4.90;99.90
6110;DHT22;3085;49.444;11.054;2023-12-20T05:13:45;5.00;99.90
6110;DHT22;3085;49.444;11.054;2023-12-20T05:16:12;4.90;99.90
6110;DHT22;3085;49.444;11.054;2023-12-20T05:18:39;4.90;99.90
6110;DHT22;3085;49.444;11.054;2023-12-20T05:21:06;4.90;99.90
6110;DHT22;3085;49.444;11.054;2023-12-20T05:23:33;4.90;99.90
6110;DHT22;3085;49.444;11.054;2023-12-20T05:26:00;4.80;99.90
6110;DHT22;3085;49.444;11.054;2023-12-20T05:28:26;4.90;99.90
6110;DHT22;3085;49.444;11.054;2023-12-20T05:30:54;4.80;99.90
6110;DHT22;3085;49.444;11.054;2023-12-20T05:33:21;4.90;99.90
6110;DHT22;3085;49.444;11.054;2023-12-20T05:35:48;5.00;99.90
6110;DHT22;3085;49.444;11.054;2023-12-20T05:38:14;5.00;99.90
6110;DHT22;3085;49.444;11.054;2023-12-20T05:40:42;5.00;99.90
6110;DHT22;3085;49.444;11.054;2023-12-20T05:43:08;4.90;99.90
6110;DHT22;3085;49.444;11.054;2023-12-20T05:45:35;4.90;99.90
6110;DHT22;3085;49.444;11.054;2023-12-20T05:48:04;4.90;99.90
6110;DHT22;3085;49.444;11.054;2023-12-20T05:50:30;4.90;99.90
6110;DHT22;3085;49.444;11.054;2023-12-20T05:52:57;4.80;99.90
6110;DHT22;3085;49.444;11.054;2023-12-20T05:55:24;4.80;99.90
6110;DHT22;3085;49.444;11.054;2023-12-20T05:57:50;4.80;99.90
6110;DHT22;3085;49.444;11.054;2023-12-20T06:00:18;4.80;99.90
6110;DHT22;3085;49.444;11.054;2023-12-20T06:02:44;4.80;99.90
6110;DHT22;3085;49.444;11.054;2023-12-20T06:05:13;4.90;99.90
6110;DHT22;3085;49.444;11.054;2023-12-20T06:07:39;4.90;99.90
6110;DHT22;3085;49.444;11.054;2023-12-20T06:10:06;4.90;99.90
6110;DHT22;3085;49.444;11.054;2023-12-20T06:12:33;4.90;99.90
6110;DHT22;3085;49.444;11.054;2023-12-20T06:15:01;4.90;99.90
6110;DHT22;3085;49.444;11.054;2023-12-20T06:17:28;4.90;99.90
6110;DHT22;3085;49.444;11.054;2023-12-20T06:19:56;4.90;99.90
6110;DHT22;3085;49.444;11.054;2023-12-20T06:22:24;4.80;99.90
6110;DHT22;3085;49.444;11.054;2023-12-20T06:24:50;4.90;99.90
6110;DHT22;3085;49.444;11.054;2023-12-20T06:27:17;4.80;99.90
6110;DHT22;3085;49.444;11.054;2023-12-20T06:29:44;4.80;99.90
6110;DHT22;3085;49.444;11.054;2023-12-20T06:32:10;4.80;99.90
6110;DHT22;3085;49.444;11.054;2023-12-20T06:34:37;4.80;99.90
6110;DHT22;3085;49.444;11.054;2023-12-20T06:37:04;4.80;99.90
6110;DHT22;3085;49.444;11.054;2023-12-20T06:39:33;4.90;99.90
6110;DHT22;3085;49.444;11.054;2023-12-20T06:42:00;4.90;99.90
6110;DHT22;3085;49.444;11.054;2023-12-20T06:44:27;4.90;99.90
6110;DHT22;3085;49.444;11.054;2023-12-20T06:46:53;4.90;99.90
6110;DHT22;3085;49.444;11.054;2023-12-20T06:49:20;4.80;99.90
6110;DHT22;3085;49.444;11.054;2023-12-20T06:51:47;4.80;99.90
6110;DHT22;3085;49.444;11.054;2023-12-20T06:54:13;4.90;99.90
6110;DHT22;3085;49.444;11.054;2023-12-20T06:56:41;4.90;99.90
6110;DHT22;3085;49.444;11.054;2023-12-20T06:59:08;4.90;99.90
6110;DHT22;3085;49.444;11.054;2023-12-20T07:01:35;4.90;99.90
6110;DHT22;3085;49.444;11.054;2023-12-20T07:04:01;5.00;99.90
6110;DHT22;3085;49.444;11.054;2023-12-20T07:06:28;4.90;99.90
6110;DHT22;3085;49.444;11.054;2023-12-20T07:08:55;4.90;99.90
6110;DHT22;3085;49.444;11.054;2023-12-20T07:11:22;4.90;99.90
6110;DHT22;3085;49.444;11.054;2023-12-20T07:13:50;5.00;99.90
6110;DHT22;3085;49.444;11.054;2023-12-20T07:16:16;4.90;99.90
6110;DHT22;3085;49.444;11.054;2023-12-20T07:18:43;4.90;99.90
6110;DHT22;3085;49.444;11.054;2023-12-20T07:21:10;4.90;99.90
6110;DHT22;3085;49.444;11.054;2023-12-20T07:23:36;5.00;99.90
6110;DHT22;3085;49.444;11.054;2023-12-20T07:26:03;5.00;99.90
6110;DHT22;3085;49.444;11.054;2023-12-20T07:28:30;5.00;99.90
6110;DHT22;3085;49.444;11.054;2023-12-20T07:30:59;5.00;99.90
6110;DHT22;3085;49.444;11.054;2023-12-20T07:33:25;5.10;99.90
6110;DHT22;3085;49.444;11.054;2023-12-20T07:35:52;5.00;99.90
6110;DHT22;3085;49.444;11.054;2023-12-20T07:38:18;5.10;99.90
6110;DHT22;3085;49.444;11.054;2023-12-20T07:40:45;5.10;99.90
6110;DHT22;3085;49.444;11.054;2023-12-20T07:43:12;5.00;99.90
6110;DHT22;3085;49.444;11.054;2023-12-20T07:45:39;5.10;99.90
6110;DHT22;3085;49.444;11.054;2023-12-20T07:48:07;5.10;99.90
6110;DHT22;3085;49.444;11.054;2023-12-20T07:50:34;5.10;99.90
6110;DHT22;3085;49.444;11.054;2023-12-20T07:53:01;5.10;99.90
6110;DHT22;3085;49.444;11.054;2023-12-20T07:55:28;5.10;99.90
6110;DHT22;3085;49.444;11.054;2023-12-20T07:57:55;5.10;99.90
6110;DHT22;3085;49.444;11.054;2023-12-20T08:00:22;5.00;99.90
6110;DHT22;3085;49.444;11.054;2023-12-20T08:02:49;5.20;99.90
6110;DHT22;3085;49.444;11.054;2023-12-20T08:05:28;5.20;99.90
6110;DHT22;3085;49.444;11.054;2023-12-20T08:07:55;5.20;99.90
6110;DHT22;3085;49.444;11.054;2023-12-20T08:10:22;5.20;99.90
6110;DHT22;3085;49.444;11.054;2023-12-20T08:12:52;5.20;99.90
6110;DHT22;3085;49.444;11.054;2023-12-20T08:15:18;5.50;99.90
6110;DHT22;3085;49.444;11.054;2023-12-20T08:17:45;5.30;99.90
6110;DHT22;3085;49.444;11.054;2023-12-20T08:20:12;5.40;99.90
6110;DHT22;3085;49.444;11.054;2023-12-20T08:22:40;5.40;99.90
6110;DHT22;3085;49.444;11.054;2023-12-20T08:25:07;5.40;99.90
6110;DHT22;3085;49.444;11.054;2023-12-20T08:27:34;5.40;99.90
6110;DHT22;3085;49.444;11.054;2023-12-20T08:30:03;5.30;99.90
6110;DHT22;3085;49.444;11.054;2023-12-20T08:32:30;5.30;99.90
6110;DHT22;3085;49.444;11.054;2023-12-20T08:34:57;5.60;99.90
6110;DHT22;3085;49.444;11.054;2023-12-20T08:37:24;5.30;99.90
6110;DHT22;3085;49.444;11.054;2023-12-20T08:39:52;5.30;99.90
6110;DHT22;3085;49.444;11.054;2023-12-20T08:42:19;5.40;99.90
6110;DHT22;3085;49.444;11.054;2023-12-20T08:44:45;5.40;99.90
6110;DHT22;3085;49.444;11.054;2023-12-20T08:47:12;5.40;99.90
6110;DHT22;3085;49.444;11.054;2023-12-20T08:49:41;5.40;99.90
6110;DHT22;3085;49.444;11.054;2023-12-20T08:52:08;5.40;99.90
6110;DHT22;3085;49.444;11.054;2023-12-20T08:54:34;5.40;99.90
6110;DHT22;3085;49.444;11.054;2023-12-20T08:57:03;5.40;99.90
6110;DHT22;3085;49.444;11.054;2023-12-20T08:59:32;5.40;99.90
6110;DHT22;3085;49.444;11.054;2023-12-20T09:01:58;5.40;99.90
6110;DHT22;3085;49.444;11.054;2023-12-20T09:04:25;5.40;99.90
6110;DHT22;3085;49.444;11.054;2023-12-20T09:06:52;5.40;99.90
6110;DHT22;3085;49.444;11.054;2023-12-20T09:09:18;5.40;99.90
6110;DHT22;3085;49.444;11.054;2023-12-20T09:11:45;5.40;99.90
6110;DHT22;3085;49.444;11.054;2023-12-20T09:14:15;5.50;99.90
6110;DHT22;3085;49.444;11.054;2023-12-20T09:16:41;5.50;99.90
6110;DHT22;3085;49.444;11.054;2023-12-20T09:19:08;5.50;99.90
6110;DHT22;3085;49.444;11.054;2023-12-20T09:21:35;5.50;99.90
6110;DHT22;3085;49.444;11.054;2023-12-20T09:24:01;5.50;99.90
6110;DHT22;3085;49.444;11.054;2023-12-20T09:26:28;5.50;99.90
6110;DHT22;3085;49.444;11.054;2023-12-20T09:28:55;5.50;99.90
6110;DHT22;3085;49.444;11.054;2023-12-20T09:31:23;5.50;99.90
6110;DHT22;3085;49.444;11.054;2023-12-20T09:33:49;5.60;99.90
6110;DHT22;3085;49.444;11.054;2023-12-20T09:36:16;5.70;99.90
6110;DHT22;3085;49.444;11.054;2023-12-20T09:38:43;5.60;99.90
6110;DHT22;3085;49.444;11.054;2023-12-20T09:41:09;5.70;99.90
6110;DHT22;3085;49.444;11.054;2023-12-20T09:43:37;5.70;99.90
6110;DHT22;3085;49.444;11.054;2023-12-20T09:46:05;5.80;99.90
6110;DHT22;3085;49.444;11.054;2023-12-20T09:48:33;5.80;99.90
6110;DHT22;3085;49.444;11.054;2023-12-20T09:51:01;5.80;99.90
6110;DHT22;3085;49.444;11.054;2023-12-20T09:53:28;5.80;99.90
6110;DHT22;3085;49.444;11.054;2023-12-20T09:55:58;5.80;99.90
6110;DHT22;3085;49.444;11.054;2023-12-20T09:58:25;5.80;99.90
6110;DHT22;3085;49.444;11.054;2023-12-20T10:00:53;5.80;99.90
6110;DHT22;3085;49.444;11.054;2023-12-20T10:03:25;5.80;99.90
6110;DHT22;3085;49.444;11.054;2023-12-20T10:05:54;5.80;99.90
6110;DHT22;3085;49.444;11.054;2023-12-20T10:08:23;5.90;99.90
6110;DHT22;3085;49.444;11.054;2023-12-20T10:10:50;5.90;99.90
6110;DHT22;3085;49.444;11.054;2023-12-20T10:13:17;5.90;99.90
6110;DHT22;3085;49.444;11.054;2023-12-20T10:15:44;5.90;99.90
6110;DHT22;3085;49.444;11.054;2023-12-20T10:18:12;6.00;99.90
6110;DHT22;3085;49.444;11.054;2023-12-20T10:20:40;5.90;99.90
6110;DHT22;3085;49.444;11.054;2023-12-20T10:23:09;6.00;99.90
6110;DHT22;3085;49.444;11.054;2023-12-20T10:25:36;6.00;99.90
6110;DHT22;3085;49.444;11.054;2023-12-20T10:28:09;6.00;99.90
6110;DHT22;3085;49.444;11.054;2023-12-20T10:30:36;5.90;99.90
6110;DHT22;3085;49.444;11.054;2023-12-20T10:33:05;6.00;99.90
6110;DHT22;3085;49.444;11.054;2023-12-20T10:35:31;5.90;99.90
6110;DHT22;3085;49.444;11.054;2023-12-20T10:38:03;6.00;99.90
6110;DHT22;3085;49.444;11.054;2023-12-20T10:40:34;6.00;99.90
6110;DHT22;3085;49.444;11.054;2023-12-20T10:43:02;6.00;99.90
6110;DHT22;3085;49.444;11.054;2023-12-20T10:45:29;6.00;99.90
6110;DHT22;3085;49.444;11.054;2023-12-20T10:47:56;6.00;99.90
6110;DHT22;3085;49.444;11.054;2023-12-20T10:50:25;6.10;99.90
6110;DHT22;3085;49.444;11.054;2023-12-20T10:52:53;6.00;99.90
6110;DHT22;3085;49.444;11.054;2023-12-20T10:55:21;6.00;99.90
6110;DHT22;3085;49.444;11.054;2023-12-20T10:57:49;6.00;99.90
6110;DHT22;3085;49.444;11.054;2023-12-20T11:00:18;6.20;99.90
6110;DHT22;3085;49.444;11.054;2023-12-20T11:02:45;5.80;99.90
6110;DHT22;3085;49.444;11.054;2023-12-20T11:05:22;5.90;99.90
6110;DHT22;3085;49.444;11.054;2023-12-20T11:07:54;5.90;99.90
6110;DHT22;3085;49.444;11.054;2023-12-20T11:10:26;5.90;99.90
6110;DHT22;3085;49.444;11.054;2023-12-20T11:13:02;5.90;99.90
6110;DHT22;3085;49.444;11.054;2023-12-20T11:15:35;5.90;99.90
6110;DHT22;3085;49.444;11.054;2023-12-20T11:18:03;5.90;99.90
6110;DHT22;3085;49.444;11.054;2023-12-20T11:20:36;5.80;99.90
6110;DHT22;3085;49.444;11.054;2023-12-20T11:23:03;5.90;99.90
6110;DHT22;3085;49.444;11.054;2023-12-20T11:25:30;5.80;99.90
6110;DHT22;3085;49.444;11.054;2023-12-20T11:28:09;5.80;99.90
6110;DHT22;3085;49.444;11.054;2023-12-20T11:30:42;5.80;99.90
6110;DHT22;3085;49.444;11.054;2023-12-20T11:33:13;5.80;99.90
6110;DHT22;3085;49.444;11.054;2023-12-20T11:35:40;5.80;99.90
6110;DHT22;3085;49.444;11.054;2023-12-20T11:38:08;5.70;99.90
6110;DHT22;3085;49.444;11.054;2023-12-20T11:40:35;6.60;99.90
6110;DHT22;3085;49.444;11.054;2023-12-20T11:43:03;5.80;99.90
6110;DHT22;3085;49.444;11.054;2023-12-20T11:45:31;5.90;99.90
6110;DHT22;3085;49.444;11.054;2023-12-20T11:47:58;5.90;99.90
6110;DHT22;3085;49.444;11.054;2023-12-20T11:50:25;5.90;99.90
6110;DHT22;3085;49.444;11.054;2023-12-20T11:52:53;6.00;99.90
6110;DHT22;3085;49.444;11.054;2023-12-20T11:55:21;6.00;99.90
6110;DHT22;3085;49.444;11.054;2023-12-20T11:57:48;5.90;99.90
6110;DHT22;3085;49.444;11.054;2023-12-20T12:00:15;5.90;99.90
6110;DHT22;3085;49.444;11.054;2023-12-20T12:02:43;5.80;99.90
6110;DHT22;3085;49.444;11.054;2023-12-20T12:05:10;5.80;99.90
6110;DHT22;3085;49.444;11.054;2023-12-20T12:07:36;5.90;99.90
6110;DHT22;3085;49.444;11.054;2023-12-20T12:10:04;5.80;99.90
6110;DHT22;3085;49.444;11.054;2023-12-20T12:12:30;5.80;99.90
6110;DHT22;3085;49.444;11.054;2023-12-20T12:14:58;5.80;99.90
6110;DHT22;3085;49.444;11.054;2023-12-20T12:17:26;5.80;99.90
6110;DHT22;3085;49.444;11.054;2023-12-20T12:20:02;5.80;99.90
6110;DHT22;3085;49.444;11.054;2023-12-20T12:22:30;5.90;99.90
6110;DHT22;3085;49.444;11.054;2023-12-20T12:24:59;5.80;99.90
6110;DHT22;3085;49.444;11.054;2023-12-20T12:27:27;6.00;99.90
6110;DHT22;3085;49.444;11.054;2023-12-20T12:30:00;6.00;99.90
6110;DHT22;3085;49.444;11.054;2023-12-20T12:32:27;6.10;99.90
6110;DHT22;3085;49.444;11.054;2023-12-20T12:34:56;6.00;99.90
6110;DHT22;3085;49.444;11.054;2023-12-20T12:37:22;6.00;99.90
6110;DHT22;3085;49.444;11.054;2023-12-20T12:39:50;6.00;99.90
6110;DHT22;3085;49.444;11.054;2023-12-20T12:42:19;6.00;99.90
6110;DHT22;3085;49.444;11.054;2023-12-20T12:44:47;6.00;99.90
6110;DHT22;3085;49.444;11.054;2023-12-20T12:47:13;6.00;99.90
6110;DHT22;3085;49.444;11.054;2023-12-20T12:49:40;6.10;99.90
6110;DHT22;3085;49.444;11.054;2023-12-20T12:52:08;6.10;99.90
6110;DHT22;3085;49.444;11.054;2023-12-20T12:54:35;6.10;99.90
6110;DHT22;3085;49.444;11.054;2023-12-20T12:57:02;6.10;99.90
6110;DHT22;3085;49.444;11.054;2023-12-20T12:59:29;6.10;99.90
6110;DHT22;3085;49.444;11.054;2023-12-20T13:01:56;6.00;99.90
6110;DHT22;3085;49.444;11.054;2023-12-20T13:04:23;6.00;99.90
6110;DHT22;3085;49.444;11.054;2023-12-20T13:06:50;6.10;99.90
6110;DHT22;3085;49.444;11.054;2023-12-20T13:09:20;6.00;99.90
6110;DHT22;3085;49.444;11.054;2023-12-20T13:11:47;6.10;99.90
6110;DHT22;3085;49.444;11.054;2023-12-20T13:14:16;6.00;99.90
6110;DHT22;3085;49.444;11.054;2023-12-20T13:16:43;6.00;99.90
6110;DHT22;3085;49.444;11.054;2023-12-20T13:19:11;6.00;99.90
6110;DHT22;3085;49.444;11.054;2023-12-20T13:21:37;5.90;99.90
6110;DHT22;3085;49.444;11.054;2023-12-20T13:24:05;5.80;99.90
6110;DHT22;3085;49.444;11.054;2023-12-20T13:26:33;5.90;99.90
6110;DHT22;3085;49.444;11.054;2023-12-20T13:29:00;5.90;99.90
6110;DHT22;3085;49.444;11.054;2023-12-20T13:31:27;6.20;99.90
6110;DHT22;3085;49.444;11.054;2023-12-20T13:33:53;6.00;99.90
6110;DHT22;3085;49.444;11.054;2023-12-20T13:36:20;6.10;99.90
6110;DHT22;3085;49.444;11.054;2023-12-20T13:38:47;6.00;99.90
6110;DHT22;3085;49.444;11.054;2023-12-20T13:41:14;6.10;99.90
6110;DHT22;3085;49.444;11.054;2023-12-20T13:43:42;6.00;99.90
6110;DHT22;3085;49.444;11.054;2023-12-20T13:46:09;6.00;99.90
6110;DHT22;3085;49.444;11.054;2023-12-20T13:48:36;5.90;99.90
6110;DHT22;3085;49.444;11.054;2023-12-20T13:51:03;5.80;99.90
6110;DHT22;3085;49.444;11.054;2023-12-20T13:53:31;5.80;99.90
6110;DHT22;3085;49.444;11.054;2023-12-20T13:55:58;5.70;99.90
6110;DHT22;3085;49.444;11.054;2023-12-20T13:58:25;5.80;99.90
6110;DHT22;3085;49.444;11.054;2023-12-20T14:00:53;5.80;99.90
6110;DHT22;3085;49.444;11.054;2023-12-20T14:03:20;5.80;99.90
6110;DHT22;3085;49.444;11.054;2023-12-20T14:05:46;5.80;99.90
6110;DHT22;3085;49.444;11.054;2023-12-20T14:08:13;5.80;99.90
6110;DHT22;3085;49.444;11.054;2023-12-20T14:10:40;5.80;99.90
6110;DHT22;3085;49.444;11.054;2023-12-20T14:13:06;5.80;99.90
6110;DHT22;3085;49.444;11.054;2023-12-20T14:15:33;5.80;99.90
6110;DHT22;3085;49.444;11.054;2023-12-20T14:18:04;5.80;99.90
6110;DHT22;3085;49.444;11.054;2023-12-20T14:20:33;5.80;99.90
6110;DHT22;3085;49.444;11.054;2023-12-20T14:23:00;5.80;99.90
6110;DHT22;3085;49.444;11.054;2023-12-20T14:25:27;5.80;99.90
6110;DHT22;3085;49.444;11.054;2023-12-20T14:27:54;5.70;99.90
6110;DHT22;3085;49.444;11.054;2023-12-20T14:30:20;5.70;99.90
6110;DHT22;3085;49.444;11.054;2023-12-20T14:32:47;5.70;99.90
6110;DHT22;3085;49.444;11.054;2023-12-20T14:35:15;5.60;99.90
6110;DHT22;3085;49.444;11.054;2023-12-20T14:37:42;5.60;99.90
6110;DHT22;3085;49.444;11.054;2023-12-20T14:40:11;5.60;99.90
6110;DHT22;3085;49.444;11.054;2023-12-20T14:42:40;5.60;99.90
6110;DHT22;3085;49.444;11.054;2023-12-20T14:45:08;5.50;99.90
6110;DHT22;3085;49.444;11.054;2023-12-20T14:47:35;5.60;99.90
6110;DHT22;3085;49.444;11.054;2023-12-20T14:50:02;5.50;99.90
6110;DHT22;3085;49.444;11.054;2023-12-20T14:52:30;5.50;99.90
6110;DHT22;3085;49.444;11.054;2023-12-20T14:54:59;5.50;99.90
6110;DHT22;3085;49.444;11.054;2023-12-20T14:57:26;5.50;99.90
6110;DHT22;3085;49.444;11.054;2023-12-20T14:59:53;5.60;99.90
6110;DHT22;3085;49.444;11.054;2023-12-20T15:02:20;5.60;99.90
6110;DHT22;3085;49.444;11.054;2023-12-20T15:04:46;5.50;99.90
6110;DHT22;3085;49.444;11.054;2023-12-20T15:07:13;5.50;99.90
6110;DHT22;3085;49.444;11.054;2023-12-20T15:09:41;5.50;99.90
6110;DHT22;3085;49.444;11.054;2023-12-20T15:12:11;5.50;99.90
6110;DHT22;3085;49.444;11.054;2023-12-20T15:14:38;5.60;99.90
6110;DHT22;3085;49.444;11.054;2023-12-20T15:17:04;5.70;99.90
6110;DHT22;3085;49.444;11.054;2023-12-20T15:19:31;5.70;99.90
6110;DHT22;3085;49.444;11.054;2023-12-20T15:21:58;5.80;99.90
6110;DHT22;3085;49.444;11.054;2023-12-20T15:24:25;5.80;99.90
6110;DHT22;3085;49.444;11.054;2023-12-20T15:26:55;5.70;99.90
6110;DHT22;3085;49.444;11.054;2023-12-20T15:29:22;5.70;99.90
6110;DHT22;3085;49.444;11.054;2023-12-20T15:31:49;5.70;99.90
6110;DHT22;3085;49.444;11.054;2023-12-20T15:34:15;5.70;99.90
6110;DHT22;3085;49.444;11.054;2023-12-20T15:36:42;5.60;99.90
6110;DHT22;3085;49.444;11.054;2023-12-20T15:39:09;5.50;99.90
6110;DHT22;3085;49.444;11.054;2023-12-20T15:41:39;5.50;99.90
6110;DHT22;3085;49.444;11.054;2023-12-20T15:44:08;5.50;99.90
6110;DHT22;3085;49.444;11.054;2023-12-20T15:46:34;5.50;99.90
6110;DHT22;3085;49.444;11.054;2023-12-20T15:49:01;5.60;99.90
6110;DHT22;3085;49.444;11.054;2023-12-20T15:51:28;5.50;99.90
6110;DHT22;3085;49.444;11.054;2023-12-20T15:53:54;5.60;99.90
6110;DHT22;3085;49.444;11.054;2023-12-20T15:56:22;5.70;99.90
6110;DHT22;3085;49.444;11.054;2023-12-20T15:58:49;5.80;99.90
6110;DHT22;3085;49.444;11.054;2023-12-20T16:01:18;5.70;99.90
6110;DHT22;3085;49.444;11.054;2023-12-20T16:03:45;5.60;99.90